| time (UTC) | temp F | wind direction | speed knots | gust knots | rain 1hr in | rain 24hr in | rain mn in | humidity % | barometer mb |
| 20260505071557 | 66 | 281 | 3.5 | 11.3 | 0.00 | 0.00 | 0.00 | 56 | 999.3 |
| 20260505070056 | 66 | 303 | 5.2 | 11.3 | 0.00 | 0.00 | 0.00 | 56 | 999.5 |
| 20260505064555 | 66 | 0 | 1.7 | 8.7 | 0.00 | 0.00 | 0.00 | 57 | 999.5 |
| 20260505063119 | 66 | 304 | 1.7 | 9.6 | 0.00 | 0.00 | 0.00 | 57 | 999.7 |
| 20260505061623 | 66 | 151 | 2.6 | 11.3 | 0.00 | 0.00 | 0.00 | 57 | 999.6 |
| 20260505060103 | 66 | 196 | 3.5 | 9.6 | 0.00 | 0.00 | 0.00 | 58 | 999.2 |
| 20260505054606 | 66 | 0 | 4.3 | 10.4 | 0.00 | 0.00 | 0.00 | 58 | 999.1 |
| 20260505053059 | 67 | 152 | 3.5 | 7.8 | 0.00 | 0.00 | 0.00 | 57 | 999.0 |
| 20260505051612 | 67 | 290 | 2.6 | 8.7 | 0.00 | 0.00 | 0.00 | 56 | 999.1 |
| 20260505041559 | 69 | 111 | 4.3 | 11.3 | 0.00 | 0.00 | 0.00 | 55 | 999.5 |
| 20260505040100 | 69 | 166 | 0.9 | 12.2 | 0.00 | 0.00 | 0.00 | 55 | 999.8 |
| 20260505034600 | 69 | 66 | 2.6 | 10.4 | 0.00 | 0.00 | 0.00 | 55 | 999.6 |
| 20260505033056 | 69 | 276 | 2.6 | 9.6 | 0.00 | 0.00 | 0.00 | 55 | 999.6 |
| 20260505031604 | 69 | 205 | 2.6 | 8.7 | 0.00 | 0.00 | 0.00 | 56 | 999.7 |
| 20260505030103 | 69 | 122 | 2.6 | 7.8 | 0.00 | 0.00 | 0.00 | 56 | 999.4 |
| 20260505024556 | 69 | 254 | 1.7 | 11.3 | 0.00 | 0.00 | 0.00 | 56 | 999.2 |
| 20260505023056 | 69 | 274 | 3.5 | 13.0 | 0.00 | 0.00 | 0.00 | 55 | 999.1 |
| 20260505021601 | 70 | 279 | 4.3 | 10.4 | 0.00 | 0.00 | 0.00 | 55 | 999.0 |
| 20260505020104 | 70 | 281 | 6.1 | 11.3 | 0.00 | 0.00 | 0.00 | 54 | 998.7 |
| 20260505014554 | 70 | 283 | 4.3 | 7.8 | 0.00 | 0.00 | 0.00 | 54 | 998.5 |
| 20260505013104 | 71 | 271 | 3.5 | 9.6 | 0.00 | 0.00 | 0.00 | 53 | 998.4 |
| 20260505011557 | 71 | 290 | 2.6 | 8.7 | 0.00 | 0.00 | 0.00 | 53 | 998.5 |
| 20260505010112 | 72 | 293 | 3.5 | 10.4 | 0.00 | 0.00 | 0.00 | 53 | 998.4 |
| 20260505004553 | 72 | 342 | 3.5 | 10.4 | 0.00 | 0.00 | 0.00 | 51 | 998.3 |
| 20260505003056 | 73 | 283 | 3.5 | 7.8 | 0.00 | 0.00 | 0.00 | 50 | 998.4 |
| 20260505001600 | 73 | 267 | 3.5 | 8.7 | 0.00 | 0.00 | 0.00 | 49 | 998.4 |
| 20260505000057 | 74 | 188 | 1.7 | 8.7 | 0.00 | 0.00 | 0.00 | 47 | 998.5 |
| 20260504234554 | 74 | 162 | 1.7 | 8.7 | 0.00 | 0.00 | 0.00 | 46 | 998.5 |
| 20260504233106 | 74 | 285 | 3.5 | 11.3 | 0.00 | 0.00 | 0.00 | 45 | 998.8 |
| 20260504231552 | 75 | 150 | 5.2 | 15.6 | 0.00 | 0.00 | 0.00 | 44 | 998.8 |
| 20260504230057 | 75 | 243 | 4.3 | 17.4 | 0.00 | 0.00 | 0.00 | 44 | 998.8 |
| 20260504224552 | 75 | 264 | 5.2 | 20.0 | 0.00 | 0.00 | 0.00 | 43 | 998.7 |
| 20260504223051 | 76 | 156 | 2.6 | 25.2 | 0.00 | 0.00 | 0.00 | 44 | 999.1 |
| 20260504221553 | 76 | 251 | 6.1 | 16.5 | 0.00 | 0.00 | 0.00 | 44 | 999.1 |
| 20260504220051 | 75 | 197 | 2.6 | 12.2 | 0.00 | 0.00 | 0.00 | 45 | 999.0 |
| 20260504214555 | 75 | 155 | 1.7 | 7.8 | 0.00 | 0.00 | 0.00 | 47 | 999.4 |
| 20260504213052 | 74 | 276 | 0.9 | 9.6 | 0.00 | 0.00 | 0.00 | 49 | 999.5 |
| 20260504211551 | 74 | 104 | 3.5 | 7.8 | 0.00 | 0.00 | 0.00 | 49 | 999.8 |
| 20260504210105 | 74 | 104 | 7.0 | 14.8 | 0.00 | 0.00 | 0.00 | 48 | 999.9 |
| 20260504204559 | 74 | 111 | 5.2 | 15.6 | 0.00 | 0.00 | 0.00 | 49 | 1000.1 |
| 20260504203105 | 74 | 101 | 0.0 | 7.0 | 0.00 | 0.00 | 0.00 | 50 | 1000.2 |
| 20260504201555 | 73 | 203 | 5.2 | 13.9 | 0.00 | 0.00 | 0.00 | 51 | 1000.3 |
| 20260504200055 | 72 | 111 | 9.6 | 14.8 | 0.00 | 0.00 | 0.00 | 51 | 1000.6 |
| 20260504194555 | 72 | 106 | 10.4 | 15.6 | 0.00 | 0.00 | 0.00 | 51 | 1001.0 |
| 20260504193051 | 71 | 104 | 9.6 | 16.5 | 0.00 | 0.00 | 0.00 | 52 | 1001.3 |
| 20260504191550 | 70 | 100 | 11.3 | 17.4 | 0.00 | 0.00 | 0.00 | 55 | 1001.3 |
| 20260504190121 | 70 | 111 | 6.1 | 10.4 | 0.00 | 0.00 | 0.00 | 57 | 1001.6 |
| 20260504184553 | 68 | 111 | 6.1 | 20.0 | 0.00 | 0.00 | 0.00 | 58 | 1001.7 |
| 20260504183050 | 69 | 254 | 4.3 | 13.9 | 0.00 | 0.00 | 0.00 | 58 | 1001.7 |
| 20260504181555 | 68 | 117 | 4.3 | 19.1 | 0.00 | 0.00 | 0.00 | 60 | 1001.6 |
| 20260504180054 | 67 | 290 | 3.5 | 16.5 | 0.00 | 0.00 | 0.00 | 59 | 1001.4 |
| 20260504174558 | 67 | 32 | 0.9 | 11.3 | 0.00 | 0.00 | 0.00 | 59 | 1001.2 |
| 20260504173052 | 66 | 335 | 3.5 | 11.3 | 0.00 | 0.00 | 0.00 | 58 | 1001.4 |
| 20260504171553 | 66 | 257 | 6.1 | 14.8 | 0.00 | 0.00 | 0.00 | 58 | 1001.4 |
| 20260504160107 | 65 | 0 | 4.3 | 10.4 | 0.00 | 0.00 | 0.00 | 60 | 1002.2 |
| 20260504081600 | 53 | 316 | 3.5 | 7.8 | 0.00 | 0.00 | 0.00 | 59 | 1003.6 |